Time;durP1;ratioP1;P1;durP2;ratioP2;P2;SDS_P1;SDS_P2;PMS_P1;PMS_P2;Temp;Humidity;BMP_temperature;BMP_pressure;BME280_temperature;BME280_humidity;BME280_pressure;Samples;Min_cycle;Max_cycle;Signal;HPM_P1;HPM_P2
2023/05/07 00:00:33;;;;;;;5.60;3.65;;;;;;;;;;4990564;28;20103;-79
2023/05/07 00:03:01;;;;;;;4.50;3.22;;;;;;;;;;5008552;28;20417;-79
2023/05/07 00:05:41;;;;;;;3.72;3.38;;;;;;;;;;5010307;28;20416;-79
2023/05/07 00:08:14;;;;;;;3.97;3.60;;;;;;;;;;5025264;28;20053;-80
2023/05/07 00:10:47;;;;;;;6.03;3.55;;;;;;;;;;5004230;28;20285;-80
2023/05/07 00:13:19;;;;;;;4.60;3.33;;;;;;;;;;5004509;28;20068;-80
2023/05/07 00:15:46;;;;;;;6.82;3.42;;;;;;;;;;5003697;28;20096;-80
2023/05/07 00:18:14;;;;;;;5.38;3.33;;;;;;;;;;5010065;28;20113;-79
2023/05/07 00:20:41;;;;;;;4.13;3.47;;;;;;;;;;5015063;28;20081;-80
2023/05/07 00:23:12;;;;;;;4.53;3.60;;;;;;;;;;5021990;28;20061;-80
2023/05/07 00:25:44;;;;;;;3.70;3.10;;;;;;;;;;5021731;28;20129;-80
2023/05/07 00:28:14;;;;;;;5.68;3.63;;;;;;;;;;5006003;28;20057;-80
2023/05/07 00:30:52;;;;;;;6.05;4.03;;;;;;;;;;5020711;28;20053;-80
2023/05/07 00:33:22;;;;;;;3.60;3.22;;;;;;;;;;5022357;28;20646;-80
2023/05/07 00:35:57;;;;;;;3.80;3.40;;;;;;;;;;5006463;28;20045;-79
2023/05/07 00:38:25;;;;;;;3.63;3.33;;;;;;;;;;5003768;28;20053;-81
2023/05/07 00:40:58;;;;;;;4.20;3.75;;;;;;;;;;4999072;28;20061;-79
2023/05/07 00:43:34;;;;;;;4.88;3.45;;;;;;;;;;4998367;28;20057;-78
2023/05/07 00:46:01;;;;;;;6.90;3.50;;;;;;;;;;4998768;28;20058;-78
2023/05/07 00:48:40;;;;;;;5.35;3.65;;;;;;;;;;4998920;28;20054;-79
2023/05/07 00:51:13;;;;;;;5.53;3.92;;;;;;;;;;4986163;28;20130;-80
2023/05/07 00:53:51;;;;;;;5.30;3.58;;;;;;;;;;4988416;28;20054;-79
2023/05/07 00:56:21;;;;;;;5.03;3.60;;;;;;;;;;5000705;28;20399;-78
2023/05/07 00:58:51;;;;;;;4.45;3.97;;;;;;;;;;5001564;28;20601;-80
2023/05/07 01:01:18;;;;;;;7.45;3.78;;;;;;;;;;5011924;28;20813;-78
2023/05/07 01:03:53;;;;;;;5.07;3.85;;;;;;;;;;5015091;28;20085;-78
2023/05/07 01:06:21;;;;;;;6.22;3.78;;;;;;;;;;5000814;28;20401;-78
2023/05/07 01:08:50;;;;;;;4.35;3.72;;;;;;;;;;5014226;28;20054;-79
2023/05/07 01:11:20;;;;;;;4.32;3.92;;;;;;;;;;4993846;28;20484;-78
2023/05/07 01:13:50;;;;;;;8.43;4.55;;;;;;;;;;5001858;28;20077;-78
2023/05/07 01:16:22;;;;;;;5.18;3.88;;;;;;;;;;5004964;28;20108;-79
2023/05/07 01:18:49;;;;;;;4.93;3.97;;;;;;;;;;5018185;28;20574;-78
2023/05/07 01:21:17;;;;;;;4.55;3.75;;;;;;;;;;4984580;28;20064;-79
2023/05/07 01:23:47;;;;;;;4.88;3.70;;;;;;;;;;5001073;28;20053;-80
2023/05/07 01:26:21;;;;;;;6.07;4.80;;;;;;;;;;5001579;28;20053;-80
2023/05/07 01:28:57;;;;;;;6.97;3.75;;;;;;;;;;5002280;28;20064;-80
2023/05/07 01:31:35;;;;;;;4.18;3.63;;;;;;;;;;5018640;28;20152;-80
2023/05/07 01:34:05;;;;;;;3.88;3.42;;;;;;;;;;4988945;28;20471;-80
2023/05/07 01:36:36;;;;;;;4.88;3.40;;;;;;;;;;5001069;28;20080;-80
2023/05/07 01:39:07;;;;;;;4.82;3.53;;;;;;;;;;5002095;28;20057;-80
2023/05/07 01:41:45;;;;;;;4.47;3.58;;;;;;;;;;5000993;28;20109;-80
2023/05/07 01:44:15;;;;;;;5.00;3.30;;;;;;;;;;5002083;28;20060;-80
2023/05/07 01:46:43;;;;;;;4.32;3.25;;;;;;;;;;5001766;28;20545;-80
2023/05/07 01:52:01;;;;;;;3.72;3.42;;;;;;;;;;5002379;28;20093;-78
2023/05/07 01:54:41;;;;;;;5.75;3.72;;;;;;;;;;5007282;28;20049;-79
2023/05/07 01:57:20;;;;;;;4.57;3.42;;;;;;;;;;5008616;28;20488;-80
2023/05/07 01:59:55;;;;;;;5.82;3.75;;;;;;;;;;5000131;28;20506;-79
2023/05/07 02:02:29;;;;;;;4.97;3.72;;;;;;;;;;5005626;28;20490;-80
2023/05/07 02:05:00;;;;;;;3.75;3.45;;;;;;;;;;4983363;28;20053;-79
2023/05/07 02:07:28;;;;;;;4.10;3.70;;;;;;;;;;4980456;28;20544;-79
2023/05/07 02:09:56;;;;;;;3.70;3.40;;;;;;;;;;4995645;28;20096;-78
2023/05/07 02:12:29;;;;;;;6.63;3.55;;;;;;;;;;5011887;28;20505;-79
2023/05/07 02:15:08;;;;;;;4.38;3.05;;;;;;;;;;5024825;28;20133;-78
2023/05/07 02:17:59;;;;;;;4.75;4.18;;;;;;;;;;4998319;28;20053;-79
2023/05/07 02:20:42;;;;;;;6.80;3.63;;;;;;;;;;4941890;28;20055;-78
2023/05/07 02:23:36;;;;;;;3.38;3.08;;;;;;;;;;4953640;28;20055;-78
2023/05/07 02:26:05;;;;;;;5.22;3.53;;;;;;;;;;4953794;28;20130;-78
2023/05/07 02:28:40;;;;;;;4.05;3.38;;;;;;;;;;4954364;28;20094;-79
2023/05/07 02:31:09;;;;;;;3.75;3.38;;;;;;;;;;4954464;28;20527;-78
2023/05/07 02:33:48;;;;;;;5.03;3.33;;;;;;;;;;4955287;28;20046;-79
2023/05/07 02:36:19;;;;;;;4.32;3.50;;;;;;;;;;4940099;28;20058;-79
2023/05/07 02:38:55;;;;;;;3.35;3.05;;;;;;;;;;4943604;28;20577;-79
2023/05/07 02:41:31;;;;;;;3.70;3.40;;;;;;;;;;4957886;28;20061;-79
2023/05/07 02:43:59;;;;;;;6.22;3.50;;;;;;;;;;4937331;29;20155;-79
2023/05/07 02:46:32;;;;;;;3.88;3.42;;;;;;;;;;4937468;28;20734;-79
2023/05/07 02:48:59;;;;;;;3.80;3.40;;;;;;;;;;4957645;29;20504;-79
2023/05/07 02:51:33;;;;;;;7.50;3.65;;;;;;;;;;4970246;28;20533;-79
2023/05/07 02:54:13;;;;;;;6.30;3.60;;;;;;;;;;4996247;28;20050;-78
2023/05/07 02:56:40;;;;;;;3.90;3.03;;;;;;;;;;5002713;28;20064;-79
2023/05/07 02:59:08;;;;;;;5.05;3.47;;;;;;;;;;5011613;28;20049;-80
2023/05/07 03:01:43;;;;;;;3.65;3.35;;;;;;;;;;4989264;28;20057;-79
2023/05/07 03:04:11;;;;;;;4.82;3.35;;;;;;;;;;4992982;28;20046;-79
2023/05/07 03:06:41;;;;;;;3.83;3.00;;;;;;;;;;5008896;28;20053;-80
2023/05/07 03:09:16;;;;;;;5.10;2.90;;;;;;;;;;5010306;28;20057;-80
2023/05/07 03:11:46;;;;;;;4.40;3.60;;;;;;;;;;5005170;28;20064;-80
2023/05/07 03:14:17;;;;;;;5.10;3.67;;;;;;;;;;5001490;28;20050;-80
2023/05/07 03:16:57;;;;;;;6.47;3.90;;;;;;;;;;5002216;28;20050;-80
2023/05/07 03:19:35;;;;;;;3.65;3.17;;;;;;;;;;4988329;28;20502;-80
2023/05/07 03:22:09;;;;;;;4.50;3.70;;;;;;;;;;5002645;28;20049;-80
2023/05/07 03:24:37;;;;;;;4.53;3.50;;;;;;;;;;5004279;28;20053;-79
2023/05/07 03:27:08;;;;;;;4.68;3.60;;;;;;;;;;5022806;28;20071;-81
2023/05/07 03:29:36;;;;;;;8.27;4.63;;;;;;;;;;5003495;28;20061;-79
2023/05/07 03:32:08;;;;;;;7.33;4.23;;;;;;;;;;5019786;28;20093;-79
2023/05/07 03:34:37;;;;;;;4.57;3.72;;;;;;;;;;5002333;28;20057;-80
2023/05/07 03:37:15;;;;;;;5.88;4.45;;;;;;;;;;5019148;28;20107;-80
2023/05/07 03:39:45;;;;;;;5.50;4.10;;;;;;;;;;5002559;28;20057;-80
2023/05/07 03:42:13;;;;;;;4.70;3.97;;;;;;;;;;5005075;28;20081;-79
2023/05/07 03:44:40;;;;;;;5.18;4.18;;;;;;;;;;4997915;28;20062;-78
2023/05/07 03:47:15;;;;;;;5.97;3.60;;;;;;;;;;4998094;28;20144;-78
2023/05/07 03:49:43;;;;;;;4.60;3.75;;;;;;;;;;4982029;28;20148;-78
2023/05/07 03:52:11;;;;;;;5.07;3.80;;;;;;;;;;4980757;28;20050;-79
2023/05/07 03:54:49;;;;;;;5.03;4.05;;;;;;;;;;4982623;28;20514;-79
2023/05/07 03:57:20;;;;;;;5.03;3.88;;;;;;;;;;4982373;28;20093;-79
2023/05/07 04:00:10;;;;;;;5.07;4.30;;;;;;;;;;4982912;28;20510;-79
2023/05/07 04:02:41;;;;;;;4.30;3.63;;;;;;;;;;5006869;28;20128;-79
2023/05/07 04:05:13;;;;;;;7.03;4.45;;;;;;;;;;5019431;28;20054;-79
2023/05/07 04:07:44;;;;;;;6.10;3.80;;;;;;;;;;5001116;28;20049;-78
2023/05/07 04:10:13;;;;;;;6.60;3.55;;;;;;;;;;5000633;28;20079;-78
2023/05/07 04:12:46;;;;;;;6.07;4.60;;;;;;;;;;5020006;28;20068;-80
2023/05/07 04:15:21;;;;;;;4.32;3.72;;;;;;;;;;5020891;28;20160;-81
2023/05/07 04:17:49;;;;;;;4.10;3.65;;;;;;;;;;5019108;28;20482;-80
2023/05/07 04:20:20;;;;;;;6.57;3.72;;;;;;;;;;5025328;28;20103;-80
2023/05/07 04:22:53;;;;;;;4.57;3.55;;;;;;;;;;5003035;28;20041;-80
2023/05/07 04:25:20;;;;;;;6.43;3.80;;;;;;;;;;5001179;28;20053;-78
2023/05/07 04:27:50;;;;;;;5.43;3.47;;;;;;;;;;5017278;28;20065;-78
2023/05/07 04:30:21;;;;;;;4.07;3.50;;;;;;;;;;5016913;28;20049;-79
2023/05/07 04:32:51;;;;;;;5.50;4.18;;;;;;;;;;4996593;28;20050;-77
2023/05/07 04:35:52;;;;;;;4.75;3.80;;;;;;;;;;4997197;28;20054;-81
2023/05/07 04:38:27;;;;;;;4.78;3.63;;;;;;;;;;4997808;28;20058;-80
2023/05/07 04:41:02;;;;;;;5.30;3.53;;;;;;;;;;4980948;28;20062;-80
2023/05/07 04:43:33;;;;;;;3.90;3.58;;;;;;;;;;4976795;28;20473;-79
2023/05/07 04:46:01;;;;;;;5.40;3.42;;;;;;;;;;5006949;28;20057;-79
2023/05/07 04:48:31;;;;;;;3.53;2.97;;;;;;;;;;5002409;28;20111;-79
2023/05/07 04:51:06;;;;;;;3.65;3.35;;;;;;;;;;4997691;28;20054;-84
2023/05/07 04:53:38;;;;;;;4.07;3.67;;;;;;;;;;4999328;28;20129;-81
2023/05/07 04:56:11;;;;;;;3.92;2.97;;;;;;;;;;5002151;28;20137;-80
2023/05/07 04:58:48;;;;;;;3.83;2.90;;;;;;;;;;5004237;28;20391;-79
2023/05/07 05:01:16;;;;;;;4.47;2.95;;;;;;;;;;5003376;28;20050;-80
2023/05/07 05:03:45;;;;;;;6.07;3.40;;;;;;;;;;5017230;28;20109;-80
2023/05/07 05:06:12;;;;;;;6.25;2.78;;;;;;;;;;5033491;28;20099;-79
2023/05/07 05:08:40;;;;;;;4.38;2.90;;;;;;;;;;5034309;28;20064;-79
2023/05/07 05:11:11;;;;;;;3.65;3.03;;;;;;;;;;5031957;28;20536;-78
2023/05/07 05:13:44;;;;;;;4.18;3.05;;;;;;;;;;4983762;28;20053;-80
2023/05/07 05:16:15;;;;;;;4.10;3.38;;;;;;;;;;5007876;28;20115;-79
2023/05/07 05:18:46;;;;;;;5.20;3.17;;;;;;;;;;5022682;28;20057;-79
2023/05/07 05:21:21;;;;;;;2.90;2.70;;;;;;;;;;5025768;28;20060;-78
2023/05/07 05:23:52;;;;;;;3.67;3.35;;;;;;;;;;5000696;28;20108;-79
2023/05/07 05:26:22;;;;;;;6.38;3.28;;;;;;;;;;5006588;28;20060;-78
2023/05/07 05:28:52;;;;;;;5.85;3.50;;;;;;;;;;4997311;28;20050;-77
2023/05/07 05:31:19;;;;;;;3.97;3.08;;;;;;;;;;4997881;28;20056;-78
2023/05/07 05:33:52;;;;;;;5.18;3.20;;;;;;;;;;5017281;28;20494;-77
2023/05/07 05:36:27;;;;;;;5.38;3.10;;;;;;;;;;4998936;28;20079;-77
2023/05/07 05:38:58;;;;;;;3.30;3.00;;;;;;;;;;5017980;28;20059;-77
2023/05/07 05:41:30;;;;;;;3.80;3.22;;;;;;;;;;4986655;28;20085;-78
2023/05/07 05:43:58;;;;;;;5.72;3.00;;;;;;;;;;5014741;28;20055;-78
2023/05/07 05:46:33;;;;;;;6.18;3.28;;;;;;;;;;5015243;28;20057;-78
2023/05/07 05:49:05;;;;;;;4.47;3.25;;;;;;;;;;4982962;28;20063;-78
2023/05/07 05:51:38;;;;;;;5.90;3.30;;;;;;;;;;4994158;28;20066;-78
2023/05/07 05:54:14;;;;;;;3.13;2.65;;;;;;;;;;4997120;28;20100;-78
2023/05/07 05:56:45;;;;;;;5.07;2.80;;;;;;;;;;4995374;28;20057;-77
2023/05/07 05:59:14;;;;;;;5.40;2.90;;;;;;;;;;4977940;28;20054;-77
2023/05/07 06:01:42;;;;;;;3.83;3.00;;;;;;;;;;4977955;28;20140;-77
2023/05/07 06:04:10;;;;;;;2.75;2.22;;;;;;;;;;4978644;28;20141;-77
2023/05/07 06:06:39;;;;;;;2.72;2.53;;;;;;;;;;4979383;28;20510;-77
2023/05/07 06:09:10;;;;;;;2.88;2.55;;;;;;;;;;4982827;28;20057;-77
2023/05/07 06:11:40;;;;;;;4.07;2.40;;;;;;;;;;4997972;28;20049;-77
2023/05/07 06:14:20;;;;;;;2.60;2.40;;;;;;;;;;5031618;28;20041;-78
2023/05/07 06:16:50;;;;;;;2.63;2.42;;;;;;;;;;4998863;28;20103;-78
2023/05/07 06:19:22;;;;;;;2.80;2.60;;;;;;;;;;5014472;28;20049;-78
2023/05/07 06:21:50;;;;;;;2.65;2.17;;;;;;;;;;5000288;28;20076;-78
2023/05/07 06:24:20;;;;;;;5.57;2.45;;;;;;;;;;5003850;28;20049;-78
2023/05/07 06:26:53;;;;;;;4.13;2.33;;;;;;;;;;5004287;28;20053;-78
2023/05/07 06:29:21;;;;;;;2.75;1.98;;;;;;;;;;4999630;28;20493;-78
2023/05/07 06:31:50;;;;;;;3.95;2.20;;;;;;;;;;4999795;28;20053;-78
2023/05/07 06:34:20;;;;;;;2.33;1.98;;;;;;;;;;4983578;28;20060;-78
2023/05/07 06:36:53;;;;;;;2.10;1.90;;;;;;;;;;5000202;28;20057;-78
2023/05/07 06:39:29;;;;;;;4.20;2.17;;;;;;;;;;5009388;28;20148;-79
2023/05/07 06:42:01;;;;;;;5.55;2.50;;;;;;;;;;5005924;28;20057;-79
2023/05/07 06:44:33;;;;;;;2.53;1.92;;;;;;;;;;5003466;28;20494;-79
2023/05/07 06:47:05;;;;;;;2.22;1.80;;;;;;;;;;5003049;28;20060;-79
2023/05/07 06:49:33;;;;;;;2.65;1.73;;;;;;;;;;5002604;28;20062;-80
2023/05/07 06:52:00;;;;;;;2.25;2.05;;;;;;;;;;5001258;28;20077;-79
2023/05/07 06:54:33;;;;;;;4.25;1.90;;;;;;;;;;4999861;28;20138;-78
2023/05/07 06:57:00;;;;;;;3.15;2.10;;;;;;;;;;4999793;28;20050;-77
2023/05/07 06:59:29;;;;;;;2.88;2.30;;;;;;;;;;4999363;28;20057;-78
2023/05/07 07:02:08;;;;;;;2.03;1.90;;;;;;;;;;5000193;28;20064;-78
2023/05/07 07:04:35;;;;;;;2.33;1.92;;;;;;;;;;4988522;28;20054;-79
2023/05/07 07:07:03;;;;;;;1.88;1.65;;;;;;;;;;4999304;28;20072;-79
2023/05/07 07:09:33;;;;;;;2.15;1.88;;;;;;;;;;5016361;28;20060;-79
2023/05/07 07:12:01;;;;;;;2.90;2.03;;;;;;;;;;4998834;28;20090;-78
2023/05/07 07:14:28;;;;;;;1.83;1.73;;;;;;;;;;4983387;28;20054;-78
2023/05/07 07:16:57;;;;;;;2.30;1.83;;;;;;;;;;5018918;28;20056;-79
2023/05/07 07:19:28;;;;;;;2.78;1.50;;;;;;;;;;5002761;28;20089;-78
2023/05/07 07:21:55;;;;;;;2.28;1.70;;;;;;;;;;5003621;28;20065;-80
2023/05/07 07:24:23;;;;;;;1.95;1.67;;;;;;;;;;5003151;28;20076;-80
2023/05/07 07:27:03;;;;;;;2.50;1.73;;;;;;;;;;5003959;28;20049;-79
2023/05/07 07:29:38;;;;;;;1.67;1.58;;;;;;;;;;5000700;28;20058;-81
2023/05/07 07:32:10;;;;;;;2.67;1.40;;;;;;;;;;4998498;28;20084;-76
2023/05/07 07:34:43;;;;;;;3.88;2.10;;;;;;;;;;4981117;28;20057;-77
2023/05/07 07:37:14;;;;;;;1.75;1.38;;;;;;;;;;4981988;28;20053;-77
2023/05/07 07:39:41;;;;;;;2.95;1.50;;;;;;;;;;5000745;28;20136;-77
2023/05/07 07:42:09;;;;;;;2.85;1.55;;;;;;;;;;4999452;28;20061;-77
2023/05/07 07:44:48;;;;;;;2.25;1.50;;;;;;;;;;5000087;28;20093;-76
2023/05/07 07:47:17;;;;;;;2.75;1.73;;;;;;;;;;5014774;28;20049;-77
2023/05/07 07:49:49;;;;;;;2.45;1.20;;;;;;;;;;4983933;28;20144;-77
2023/05/07 07:52:19;;;;;;;1.98;1.38;;;;;;;;;;5014589;28;20528;-76
2023/05/07 07:54:47;;;;;;;2.40;1.33;;;;;;;;;;5014887;28;20391;-76
2023/05/07 07:57:17;;;;;;;1.38;1.27;;;;;;;;;;5014252;28;20128;-77
2023/05/07 07:59:44;;;;;;;2.63;1.42;;;;;;;;;;5032552;28;20110;-76
2023/05/07 08:02:12;;;;;;;1.88;1.40;;;;;;;;;;5014430;28;20053;-77
2023/05/07 08:04:39;;;;;;;2.67;1.42;;;;;;;;;;4998092;28;20061;-77
2023/05/07 08:07:12;;;;;;;2.78;1.58;;;;;;;;;;5014414;28;20053;-77
2023/05/07 08:09:40;;;;;;;1.77;1.45;;;;;;;;;;5014137;28;20053;-77
2023/05/07 08:12:10;;;;;;;3.08;1.63;;;;;;;;;;4982989;28;20057;-78
2023/05/07 08:14:41;;;;;;;2.00;1.85;;;;;;;;;;5015297;28;20104;-77
2023/05/07 08:17:11;;;;;;;1.92;1.70;;;;;;;;;;5001340;28;20057;-75
2023/05/07 08:19:39;;;;;;;2.17;2.00;;;;;;;;;;5004743;28;20576;-76
2023/05/07 08:22:06;;;;;;;2.50;2.30;;;;;;;;;;4998729;28;20505;-76
2023/05/07 08:24:36;;;;;;;2.60;2.40;;;;;;;;;;5000468;28;20057;-79
2023/05/07 08:27:09;;;;;;;1.73;1.60;;;;;;;;;;4999882;28;20061;-78
2023/05/07 08:29:39;;;;;;;2.88;2.05;;;;;;;;;;5014863;28;20498;-78
2023/05/07 08:32:11;;;;;;;2.83;1.83;;;;;;;;;;5013557;28;20057;-79
2023/05/07 08:34:43;;;;;;;1.75;1.65;;;;;;;;;;5014392;28;20088;-79
2023/05/07 08:37:11;;;;;;;2.47;1.80;;;;;;;;;;4993604;28;20064;-76
2023/05/07 08:39:39;;;;;;;5.53;1.90;;;;;;;;;;5022266;28;20080;-77
2023/05/07 08:42:16;;;;;;;2.30;1.58;;;;;;;;;;4998949;28;20701;-77
2023/05/07 08:44:48;;;;;;;2.22;1.85;;;;;;;;;;4998942;28;20052;-77
2023/05/07 08:47:16;;;;;;;1.92;1.73;;;;;;;;;;4993220;28;20532;-77
2023/05/07 08:49:44;;;;;;;2.28;2.10;;;;;;;;;;4984532;28;20096;-77
2023/05/07 08:52:12;;;;;;;2.55;1.75;;;;;;;;;;4994617;28;20409;-76
2023/05/07 08:54:40;;;;;;;1.48;1.38;;;;;;;;;;5036898;28;20088;-74
2023/05/07 08:57:08;;;;;;;2.95;1.67;;;;;;;;;;5012290;28;20053;-78
2023/05/07 08:59:39;;;;;;;2.03;1.80;;;;;;;;;;4999604;28;20061;-75
2023/05/07 09:02:07;;;;;;;2.40;1.73;;;;;;;;;;4998130;28;20049;-76
2023/05/07 09:04:36;;;;;;;3.28;1.88;;;;;;;;;;5014061;28;20132;-76
2023/05/07 09:07:05;;;;;;;4.50;2.05;;;;;;;;;;4998085;28;20088;-76
2023/05/07 09:09:37;;;;;;;4.05;2.20;;;;;;;;;;5014576;28;20064;-76
2023/05/07 09:12:05;;;;;;;2.20;2.00;;;;;;;;;;5014478;28;20049;-76
2023/05/07 09:14:34;;;;;;;2.42;2.22;;;;;;;;;;5031531;28;20485;-76
2023/05/07 09:17:01;;;;;;;1.77;1.65;;;;;;;;;;5014443;28;20057;-76
2023/05/07 09:19:31;;;;;;;1.70;1.50;;;;;;;;;;4998275;28;20091;-76
2023/05/07 09:22:03;;;;;;;2.97;2.30;;;;;;;;;;4998626;28;20049;-76
2023/05/07 09:24:38;;;;;;;3.60;1.80;;;;;;;;;;4998351;28;20054;-76
2023/05/07 09:27:13;;;;;;;2.63;1.80;;;;;;;;;;4995042;28;20488;-76
2023/05/07 09:29:41;;;;;;;3.45;1.77;;;;;;;;;;4994442;28;20053;-76
2023/05/07 09:32:09;;;;;;;2.38;2.00;;;;;;;;;;4994120;28;20061;-76
2023/05/07 09:34:37;;;;;;;2.83;1.60;;;;;;;;;;4992215;28;20128;-77
2023/05/07 09:37:07;;;;;;;2.53;2.05;;;;;;;;;;5013022;28;20115;-77
2023/05/07 09:39:48;;;;;;;2.15;1.75;;;;;;;;;;4996577;28;20049;-77
2023/05/07 09:42:22;;;;;;;3.22;2.28;;;;;;;;;;4996258;28;20060;-77
2023/05/07 09:44:52;;;;;;;1.67;1.58;;;;;;;;;;4983280;28;20409;-76
2023/05/07 09:47:25;;;;;;;2.20;2.00;;;;;;;;;;4983886;28;20053;-77
2023/05/07 09:49:59;;;;;;;5.95;2.35;;;;;;;;;;4997199;28;20085;-77
2023/05/07 09:52:35;;;;;;;2.22;1.80;;;;;;;;;;4997983;28;20487;-77
2023/05/07 09:55:05;;;;;;;2.60;1.80;;;;;;;;;;5000817;28;20111;-77
2023/05/07 09:57:56;;;;;;;3.45;1.70;;;;;;;;;;5020867;28;20086;-77
2023/05/07 10:00:24;;;;;;;2.00;1.45;;;;;;;;;;5000284;28;20067;-77
2023/05/07 10:02:52;;;;;;;1.65;1.55;;;;;;;;;;4998541;28;20525;-78
2023/05/07 10:05:23;;;;;;;1.77;1.50;;;;;;;;;;4998220;28;20050;-78
2023/05/07 10:07:50;;;;;;;4.30;1.80;;;;;;;;;;5012963;28;20061;-76
2023/05/07 10:10:18;;;;;;;1.80;1.60;;;;;;;;;;5009154;28;20100;-75
2023/05/07 10:12:50;;;;;;;2.35;1.60;;;;;;;;;;5012303;28;20428;-76
2023/05/07 10:15:19;;;;;;;5.75;1.80;;;;;;;;;;4978787;28;20060;-76
2023/05/07 10:17:49;;;;;;;1.55;1.45;;;;;;;;;;4962203;28;20065;-78
2023/05/07 10:20:17;;;;;;;2.85;1.60;;;;;;;;;;4977250;28;20054;-77
2023/05/07 10:22:48;;;;;;;2.80;2.03;;;;;;;;;;4977966;28;20061;-78
2023/05/07 10:25:25;;;;;;;1.70;1.45;;;;;;;;;;4982176;28;20060;-77
2023/05/07 10:27:55;;;;;;;3.55;2.10;;;;;;;;;;4997938;28;20569;-76
2023/05/07 10:31:05;;;;;;;2.50;1.58;;;;;;;;;;5003348;28;20061;-77
2023/05/07 10:33:37;;;;;;;3.28;1.80;;;;;;;;;;5000681;28;20065;-77
2023/05/07 10:36:04;;;;;;;3.70;1.63;;;;;;;;;;5018675;28;20489;-77
2023/05/07 10:38:33;;;;;;;2.83;1.67;;;;;;;;;;4999895;28;20044;-75
2023/05/07 10:41:05;;;;;;;1.70;1.60;;;;;;;;;;4998680;28;20076;-76
2023/05/07 10:43:43;;;;;;;1.73;1.48;;;;;;;;;;4990492;28;20058;-74
2023/05/07 10:46:18;;;;;;;;;;;;;;;;;;5006518;28;20056;-74
2023/05/07 10:49:02;;;;;;;2.33;1.45;;;;;;;;;;4998589;28;19928;-74
2023/05/07 10:51:32;;;;;;;1.90;1.42;;;;;;;;;;5016611;28;20053;-74
2023/05/07 10:54:12;;;;;;;5.25;3.50;;;;;;;;;;4998998;28;20577;-74
2023/05/07 10:56:41;;;;;;;2.13;1.38;;;;;;;;;;5016286;28;20115;-73
2023/05/07 10:59:33;;;;;;;2.70;1.73;;;;;;;;;;5001107;28;20049;-74
2023/05/07 11:02:06;;;;;;;1.57;1.47;;;;;;;;;;4981671;28;20053;-76
2023/05/07 11:04:38;;;;;;;2.38;1.63;;;;;;;;;;5000113;28;20049;-77
2023/05/07 11:07:06;;;;;;;3.90;1.35;;;;;;;;;;4999060;28;20095;-77
2023/05/07 11:09:58;;;;;;;2.30;1.58;;;;;;;;;;5019028;28;20058;-76
2023/05/07 11:12:41;;;;;;;2.90;1.13;;;;;;;;;;5005005;28;20049;-79
2023/05/07 11:15:11;;;;;;;1.65;1.23;;;;;;;;;;5008137;28;20050;-78
2023/05/07 11:17:58;;;;;;;1.30;1.20;;;;;;;;;;5006412;28;20512;-78
2023/05/07 11:20:50;;;;;;;2.40;1.40;;;;;;;;;;5027747;28;20298;-78
2023/05/07 11:23:33;;;;;;;3.70;1.30;;;;;;;;;;5013006;28;20084;-77
2023/05/07 11:26:08;;;;;;;1.92;1.23;;;;;;;;;;5021139;28;20045;-82
2023/05/07 11:28:42;;;;;;;3.28;1.30;;;;;;;;;;5001396;28;20061;-77
2023/05/07 11:31:12;;;;;;;1.63;1.40;;;;;;;;;;5010685;28;20144;-77
2023/05/07 11:33:43;;;;;;;2.35;1.55;;;;;;;;;;5030120;28;20080;-76
2023/05/07 11:36:21;;;;;;;1.75;1.55;;;;;;;;;;5015768;28;20050;-76
2023/05/07 11:38:49;;;;;;;1.73;1.23;;;;;;;;;;4999262;28;20049;-76
2023/05/07 11:41:21;;;;;;;2.53;1.40;;;;;;;;;;4999270;28;20103;-76
2023/05/07 11:44:01;;;;;;;1.23;1.13;;;;;;;;;;5016057;28;20815;-76
2023/05/07 11:46:38;;;;;;;1.90;1.20;;;;;;;;;;5017335;28;20053;-75
2023/05/07 11:49:18;;;;;;;2.97;1.25;;;;;;;;;;5001139;28;20060;-76
2023/05/07 11:51:49;;;;;;;2.33;1.50;;;;;;;;;;4996127;28;20061;-76
2023/05/07 11:54:37;;;;;;;3.88;1.25;;;;;;;;;;4996898;28;20801;-76
2023/05/07 11:57:12;;;;;;;1.90;1.30;;;;;;;;;;4998350;28;20073;-76
2023/05/07 11:59:46;;;;;;;1.27;1.00;;;;;;;;;;5015126;28;20097;-76
2023/05/07 12:02:15;;;;;;;2.63;1.53;;;;;;;;;;5007617;28;20144;-76
2023/05/07 12:04:50;;;;;;;1.20;1.05;;;;;;;;;;5001304;28;20056;-75
2023/05/07 12:07:23;;;;;;;3.03;1.40;;;;;;;;;;5032583;28;20100;-75
2023/05/07 12:10:05;;;;;;;1.55;1.20;;;;;;;;;;5002246;28;20064;-76
2023/05/07 12:12:45;;;;;;;2.03;1.23;;;;;;;;;;5000432;28;20057;-76
2023/05/07 12:15:16;;;;;;;2.83;1.10;;;;;;;;;;5015363;28;20077;-79
2023/05/07 12:17:46;;;;;;;1.25;1.10;;;;;;;;;;5000696;28;20049;-80
2023/05/07 12:20:21;;;;;;;3.22;1.45;;;;;;;;;;5001075;28;20045;-78
2023/05/07 12:22:57;;;;;;;1.63;1.30;;;;;;;;;;5021035;28;20049;-77
2023/05/07 12:25:26;;;;;;;1.20;1.10;;;;;;;;;;5017045;28;20081;-77
2023/05/07 12:27:54;;;;;;;1.30;1.20;;;;;;;;;;4998789;28;20053;-77
2023/05/07 12:30:22;;;;;;;1.50;1.20;;;;;;;;;;4997960;28;20501;-77
2023/05/07 12:32:54;;;;;;;2.15;1.40;;;;;;;;;;5014983;28;20061;-77
2023/05/07 12:35:31;;;;;;;1.63;1.20;;;;;;;;;;4998248;28;20055;-76
2023/05/07 12:38:04;;;;;;;2.15;1.40;;;;;;;;;;5029112;28;20418;-78
2023/05/07 12:40:45;;;;;;;1.73;1.10;;;;;;;;;;4986761;28;20053;-78
2023/05/07 12:43:47;;;;;;;1.67;1.08;;;;;;;;;;4997321;28;20044;-78
2023/05/07 12:46:18;;;;;;;1.33;1.23;;;;;;;;;;5008765;28;20046;-78
2023/05/07 12:48:48;;;;;;;1.27;1.17;;;;;;;;;;5018665;28;20127;-78
2023/05/07 12:51:18;;;;;;;2.53;1.30;;;;;;;;;;5002467;28;20088;-78
2023/05/07 12:53:48;;;;;;;3.22;1.17;;;;;;;;;;5002264;28;20053;-79
2023/05/07 12:56:16;;;;;;;3.33;1.40;;;;;;;;;;5001485;28;20049;-78
2023/05/07 12:58:44;;;;;;;1.85;1.50;;;;;;;;;;4994881;28;20064;-78
2023/05/07 13:01:15;;;;;;;2.47;1.52;;;;;;;;;;4987741;28;20053;-78
2023/05/07 13:03:47;;;;;;;3.28;1.70;;;;;;;;;;5018398;28;20140;-78
2023/05/07 13:06:16;;;;;;;2.05;1.52;;;;;;;;;;4983994;28;20085;-78
2023/05/07 13:08:47;;;;;;;4.28;1.90;;;;;;;;;;5005788;28;20120;-78
2023/05/07 13:11:15;;;;;;;2.15;1.83;;;;;;;;;;5001711;28;20510;-78
2023/05/07 13:13:47;;;;;;;4.30;2.17;;;;;;;;;;5001337;28;20061;-78
2023/05/07 13:16:17;;;;;;;4.38;2.20;;;;;;;;;;5020439;28;20153;-76
2023/05/07 13:18:51;;;;;;;3.35;2.03;;;;;;;;;;4986215;28;20132;-75
2023/05/07 13:21:21;;;;;;;1.80;1.70;;;;;;;;;;5016579;28;20106;-75
2023/05/07 13:23:54;;;;;;;5.88;1.90;;;;;;;;;;5011090;28;20045;-75
2023/05/07 13:26:22;;;;;;;4.22;1.80;;;;;;;;;;5014952;28;20049;-75
2023/05/07 13:28:56;;;;;;;4.55;1.58;;;;;;;;;;5031741;28;20053;-75
2023/05/07 13:31:28;;;;;;;;;;;;;;;;;;5014364;28;20060;-75
2023/05/07 13:34:08;;;;;;;2.50;1.35;;;;;;;;;;5015562;28;20004;-75
2023/05/07 13:36:39;;;;;;;5.28;1.27;;;;;;;;;;5014169;28;20498;-75
2023/05/07 13:39:29;;;;;;;2.00;1.00;;;;;;;;;;5012650;28;20052;-76
2023/05/07 13:41:58;;;;;;;5.00;1.60;;;;;;;;;;4999036;28;20458;-76
2023/05/07 13:44:28;;;;;;;1.73;1.00;;;;;;;;;;5032234;28;20061;-75
2023/05/07 13:47:01;;;;;;;1.60;0.70;;;;;;;;;;5013841;28;20057;-75
2023/05/07 13:49:32;;;;;;;1.02;0.70;;;;;;;;;;5013769;28;20060;-76
2023/05/07 13:52:00;;;;;;;1.35;1.00;;;;;;;;;;4995630;28;20601;-75
2023/05/07 13:54:45;;;;;;;1.80;0.80;;;;;;;;;;5015912;28;20064;-75
2023/05/07 13:57:16;;;;;;;3.25;0.73;;;;;;;;;;4998622;28;20056;-74
2023/05/07 13:59:44;;;;;;;0.93;0.88;;;;;;;;;;4997758;28;20561;-75
2023/05/07 14:02:15;;;;;;;0.60;0.60;;;;;;;;;;5015546;28;20060;-75
2023/05/07 14:04:45;;;;;;;1.02;0.80;;;;;;;;;;5014723;28;20064;-75
2023/05/07 14:07:16;;;;;;;2.63;0.80;;;;;;;;;;5013299;28;20103;-76
2023/05/07 14:09:56;;;;;;;1.02;0.93;;;;;;;;;;4995718;28;20058;-75
2023/05/07 14:12:29;;;;;;;2.45;0.60;;;;;;;;;;4981179;28;20489;-75
2023/05/07 14:15:00;;;;;;;1.10;1.00;;;;;;;;;;5003990;28;20054;-76
2023/05/07 14:17:32;;;;;;;4.18;1.00;;;;;;;;;;4997801;28;20515;-76
2023/05/07 14:20:00;;;;;;;1.00;0.70;;;;;;;;;;4998051;28;20057;-76
2023/05/07 14:22:33;;;;;;;1.52;0.90;;;;;;;;;;5015459;28;20169;-75
2023/05/07 14:25:04;;;;;;;8.73;1.65;;;;;;;;;;5001417;28;20076;-75
2023/05/07 14:27:36;;;;;;;3.05;1.92;;;;;;;;;;4998068;28;20057;-76
2023/05/07 14:30:16;;;;;;;1.92;1.48;;;;;;;;;;5014389;28;20430;-76
2023/05/07 14:32:54;;;;;;;4.53;2.00;;;;;;;;;;5013778;28;20585;-76
2023/05/07 14:35:29;;;;;;;2.35;1.67;;;;;;;;;;4997408;28;20055;-76
2023/05/07 14:37:57;;;;;;;3.80;1.75;;;;;;;;;;5013161;28;20057;-75
2023/05/07 14:40:32;;;;;;;10.23;5.70;;;;;;;;;;4995325;28;20142;-75
2023/05/07 14:43:01;;;;;;;20.45;10.02;;;;;;;;;;5009272;28;20077;-76
2023/05/07 14:45:30;;;;;;;16.85;8.82;;;;;;;;;;5006328;28;20077;-74
2023/05/07 14:48:04;;;;;;;6.13;4.40;;;;;;;;;;5005792;28;20060;-75
2023/05/07 14:50:38;;;;;;;7.00;2.90;;;;;;;;;;5008561;28;20054;-75
2023/05/07 14:53:06;;;;;;;5.43;3.15;;;;;;;;;;4994668;28;20474;-75
2023/05/07 14:55:38;;;;;;;4.30;2.60;;;;;;;;;;5007704;28;20580;-76
2023/05/07 14:58:07;;;;;;;3.88;2.75;;;;;;;;;;4998106;28;20057;-76
2023/05/07 15:00:35;;;;;;;7.57;3.30;;;;;;;;;;5010807;28;20054;-76
2023/05/07 15:03:13;;;;;;;3.75;2.80;;;;;;;;;;5006155;28;20108;-75
2023/05/07 15:05:44;;;;;;;6.40;2.63;;;;;;;;;;4994901;28;20573;-76
2023/05/07 15:08:15;;;;;;;6.05;2.75;;;;;;;;;;5010635;28;20054;-76
2023/05/07 15:10:49;;;;;;;3.50;3.05;;;;;;;;;;5006345;28;20803;-76
2023/05/07 15:13:20;;;;;;;4.70;3.38;;;;;;;;;;4999346;28;20050;-77
2023/05/07 15:16:09;;;;;;;3.47;2.80;;;;;;;;;;5010397;28;20490;-77